Time;durP1;ratioP1;P1;durP2;ratioP2;P2;SDS_P1;SDS_P2;PMS_P1;PMS_P2;Temp;Humidity;BMP_temperature;BMP_pressure;BME280_temperature;BME280_humidity;BME280_pressure;Samples;Min_cycle;Max_cycle;Signal;HPM_P1;HPM_P2
2022/05/12 00:00:06;;;;;;;0.00;0.00;;;13.80;99.90;;;;;;5072388;28;20372;-68
2022/05/12 00:02:32;;;;;;;0.00;0.00;;;13.80;99.90;;;;;;5074293;28;20393;-68
2022/05/12 00:04:59;;;;;;;0.00;0.00;;;13.80;99.90;;;;;;5055587;28;20025;-68
2022/05/12 00:07:25;;;;;;;0.00;0.00;;;13.80;99.90;;;;;;5073986;28;20119;-69
2022/05/12 00:09:52;;;;;;;0.00;0.00;;;13.80;99.90;;;;;;5055619;28;20048;-68
2022/05/12 00:12:18;;;;;;;0.00;0.00;;;13.70;99.90;;;;;;5073558;28;20024;-68
2022/05/12 00:14:44;;;;;;;0.00;0.00;;;13.70;99.90;;;;;;5066169;28;20032;-69
2022/05/12 00:17:10;;;;;;;13.85;3.50;;;13.80;99.90;;;;;;5063867;28;20119;-69
2022/05/12 00:19:36;;;;;;;0.00;0.00;;;14.00;99.90;;;;;;5070664;28;20027;-68
2022/05/12 00:22:03;;;;;;;0.00;0.00;;;14.10;99.90;;;;;;5090176;28;20024;-68
2022/05/12 00:24:29;;;;;;;0.00;0.00;;;14.50;99.90;;;;;;5087608;28;20028;-67
2022/05/12 00:26:55;;;;;;;0.00;0.00;;;14.70;99.90;;;;;;5089299;28;20089;-68
2022/05/12 00:29:21;;;;;;;0.00;0.00;;;14.90;99.90;;;;;;5070985;28;20124;-68
2022/05/12 00:31:49;;;;;;;0.63;0.63;;;15.20;99.90;;;;;;5072605;28;20035;-68
2022/05/12 00:34:17;;;;;;;0.00;0.00;;;15.00;99.90;;;;;;5069026;28;20037;-67
2022/05/12 00:36:43;;;;;;;0.00;0.00;;;15.10;99.90;;;;;;5075006;28;20131;-68
2022/05/12 00:39:10;;;;;;;0.00;0.00;;;15.30;99.90;;;;;;5079513;28;20034;-68
2022/05/12 00:41:36;;;;;;;0.00;0.00;;;15.70;99.90;;;;;;5089814;28;20020;-68
2022/05/12 00:44:07;;;;;;;0.00;0.00;;;16.40;99.90;;;;;;5075286;28;20027;-69
2022/05/12 00:46:36;;;;;;;0.55;0.55;;;17.00;99.90;;;;;;5091930;28;20043;-69
2022/05/12 00:49:12;;;;;;;0.00;0.00;;;17.60;99.90;;;;;;5086069;28;20015;-69
2022/05/12 00:51:45;;;;;;;0.00;0.00;;;17.90;99.90;;;;;;5089461;28;20020;-69
2022/05/12 00:54:55;;;;;;;0.00;0.00;;;18.60;99.90;;;;;;5087165;28;20021;-69
2022/05/12 00:57:47;;;;;;;0.00;0.00;;;19.10;99.90;;;;;;5080330;28;20017;-69
2022/05/12 01:00:14;;;;;;;0.00;0.00;;;19.70;99.90;;;;;;5066258;28;20063;-69
2022/05/12 01:02:44;;;;;;;0.00;0.00;;;20.00;99.90;;;;;;5082609;28;20024;-68
2022/05/12 01:05:12;;;;;;;0.00;0.00;;;19.80;99.90;;;;;;5079066;28;20081;-69
2022/05/12 01:07:38;;;;;;;0.00;0.00;;;20.10;99.90;;;;;;5078865;28;20107;-68
2022/05/12 01:10:05;;;;;;;0.00;0.00;;;20.20;99.90;;;;;;5075261;28;20038;-68
2022/05/12 01:12:32;;;;;;;0.00;0.00;;;19.80;99.90;;;;;;5081363;28;20024;-70
2022/05/12 01:14:58;;;;;;;0.98;0.98;;;19.50;99.90;;;;;;5071523;28;20027;-69
2022/05/12 01:17:24;;;;;;;0.00;0.00;;;19.60;99.90;;;;;;5086774;28;20016;-69
2022/05/12 01:19:51;;;;;;;1.25;1.15;;;20.00;99.90;;;;;;5090771;28;20495;-68
2022/05/12 01:22:40;;;;;;;1.63;0.93;;;19.60;99.90;;;;;;5074909;28;20025;-68
2022/05/12 01:25:13;;;;;;;0.20;0.20;;;19.40;99.90;;;;;;5051992;28;20041;-69
2022/05/12 01:27:42;;;;;;;0.00;0.00;;;19.10;99.90;;;;;;5073699;28;20110;-68
2022/05/12 01:30:09;;;;;;;0.00;0.00;;;19.80;99.90;;;;;;5083616;28;20026;-68
2022/05/12 01:32:35;;;;;;;5.60;5.32;;;20.50;99.90;;;;;;5087825;28;20380;-69
2022/05/12 01:35:03;;;;;;;0.00;0.00;;;20.20;99.90;;;;;;5092839;28;20051;-69
2022/05/12 01:37:29;;;;;;;2.80;0.88;;;20.40;99.90;;;;;;5074318;28;20053;-69
2022/05/12 01:39:55;;;;;;;0.00;0.00;;;20.00;99.90;;;;;;5071604;28;20506;-69
2022/05/12 01:42:21;;;;;;;1.55;1.45;;;19.20;99.90;;;;;;5087579;28;20020;-68
2022/05/12 01:44:48;;;;;;;1.10;1.10;;;19.20;99.90;;;;;;5066926;28;20075;-69
2022/05/12 01:47:14;;;;;;;1.23;1.13;;;19.40;99.90;;;;;;5072150;28;20436;-69
2022/05/12 01:49:40;;;;;;;40.08;31.88;;;19.40;99.90;;;;;;5053798;28;20060;-68
2022/05/12 01:52:07;;;;;;;4.25;3.22;;;18.90;99.90;;;;;;5062243;28;20395;-69
2022/05/12 01:54:33;;;;;;;1.38;1.17;;;19.30;99.90;;;;;;5090904;28;20035;-68
2022/05/12 01:56:59;;;;;;;0.10;0.10;;;19.20;99.90;;;;;;5068408;28;20038;-68
2022/05/12 01:59:25;;;;;;;0.35;0.10;;;19.40;99.90;;;;;;5061300;28;20075;-68
2022/05/12 02:01:52;;;;;;;0.00;0.00;;;20.10;99.90;;;;;;5069591;28;20457;-69
2022/05/12 02:04:19;;;;;;;0.10;0.10;;;21.10;99.90;;;;;;5073817;28;20023;-68
2022/05/12 02:06:46;;;;;;;0.00;0.00;;;21.60;99.90;;;;;;5091775;28;20020;-69
2022/05/12 02:09:12;;;;;;;0.00;0.00;;;22.20;99.90;;;;;;5092138;28;20054;-69
2022/05/12 02:11:38;;;;;;;0.70;0.70;;;22.60;99.90;;;;;;5080331;28;20028;-68
2022/05/12 02:14:06;;;;;;;0.00;0.00;;;22.80;99.90;;;;;;5072042;28;20031;-69
2022/05/12 02:16:33;;;;;;;3.17;2.78;;;23.00;99.90;;;;;;5081484;28;20539;-69
2022/05/12 02:19:00;;;;;;;0.32;0.32;;;23.10;99.90;;;;;;5077321;28;20045;-69
2022/05/12 02:21:27;;;;;;;0.15;0.05;;;23.30;99.90;;;;;;5072268;28;20035;-70
2022/05/12 02:23:53;;;;;;;1.90;0.30;;;23.60;99.90;;;;;;5090385;28;20493;-69
2022/05/12 02:26:19;;;;;;;4.35;2.78;;;24.10;99.90;;;;;;5077429;28;20021;-68
2022/05/12 02:28:45;;;;;;;0.43;0.20;;;24.10;99.90;;;;;;5084226;28;20036;-69
2022/05/12 02:31:11;;;;;;;16.08;1.77;;;24.80;99.90;;;;;;5085695;28;20156;-70
2022/05/12 02:33:38;;;;;;;1.00;0.93;;;25.20;99.90;;;;;;5089503;28;20020;-70
2022/05/12 02:36:05;;;;;;;2.83;1.65;;;25.30;93.90;;;;;;5075437;28;20491;-69
2022/05/12 02:38:31;;;;;;;0.00;0.00;;;24.20;99.90;;;;;;5090210;28;20071;-69
2022/05/12 02:40:57;;;;;;;0.10;0.10;;;24.20;99.90;;;;;;5079138;28;20028;-69
2022/05/12 02:43:24;;;;;;;0.10;0.10;;;25.20;97.20;;;;;;5055451;28;20066;-69
2022/05/12 02:46:02;;;;;;;1.60;1.08;;;26.00;93.90;;;;;;5062474;28;20035;-69
2022/05/12 02:48:32;;;;;;;1.05;0.95;;;25.10;93.10;;;;;;5044618;28;20049;-68
2022/05/12 02:50:58;;;;;;;6.68;1.02;;;25.80;89.30;;;;;;5064425;28;20052;-69
2022/05/12 02:53:25;;;;;;;3.70;1.95;;;24.90;90.50;;;;;;5067747;28;20031;-69
2022/05/12 02:55:51;;;;;;;2.03;1.75;;;25.00;91.80;;;;;;5056769;28;20079;-68
2022/05/12 02:58:18;;;;;;;2.42;2.25;;;24.60;92.80;;;;;;5070288;28;20086;-68
2022/05/12 03:00:46;;;;;;;2.40;1.83;;;24.50;94.70;;;;;;5063832;28;20078;-69
2022/05/12 03:03:13;;;;;;;2.30;1.50;;;23.00;99.90;;;;;;5067240;28;20095;-67
2022/05/12 03:05:43;;;;;;;8.80;2.00;;;22.00;99.90;;;;;;5056900;28;20033;-68
2022/05/12 03:08:10;;;;;;;2.10;1.10;;;22.60;99.90;;;;;;5053883;28;20037;-68
2022/05/12 03:10:37;;;;;;;0.00;0.00;;;22.70;99.90;;;;;;5054061;28;20020;-68
2022/05/12 03:13:03;;;;;;;0.03;0.03;;;22.40;99.90;;;;;;5065536;28;20020;-67
2022/05/12 03:15:30;;;;;;;0.10;0.10;;;23.20;99.90;;;;;;5060905;28;20024;-68
2022/05/12 03:17:56;;;;;;;0.20;0.20;;;23.30;99.90;;;;;;5062573;28;20041;-69
2022/05/12 03:20:25;;;;;;;0.00;0.00;;;23.10;99.90;;;;;;5063092;28;20063;-69
2022/05/12 03:22:51;;;;;;;0.77;0.63;;;22.80;99.90;;;;;;5043010;28;20894;-68
2022/05/12 03:25:19;;;;;;;0.88;0.65;;;23.10;99.90;;;;;;5064185;28;20033;-70
2022/05/12 03:27:48;;;;;;;11.93;1.98;;;22.40;99.90;;;;;;5052297;28;20111;-69
2022/05/12 03:30:44;;;;;;;2.28;1.17;;;22.30;99.90;;;;;;5068089;28;20036;-69
2022/05/12 03:33:11;;;;;;;1.25;0.57;;;22.40;99.90;;;;;;5033866;28;20036;-69
2022/05/12 03:35:37;;;;;;;1.73;1.10;;;21.00;99.90;;;;;;5059732;28;20033;-69
2022/05/12 03:38:06;;;;;;;0.13;0.13;;;20.50;99.90;;;;;;5065728;28;20032;-69
2022/05/12 03:40:33;;;;;;;0.00;0.00;;;20.50;99.90;;;;;;5066767;28;20040;-68
2022/05/12 03:55:06;;;;;;;0.00;0.00;;;20.40;99.90;;;;;;5046415;28;20407;-76
2022/05/12 03:57:33;;;;;;;0.88;0.85;;;21.10;99.90;;;;;;5034705;28;20032;-77
2022/05/12 04:00:00;;;;;;;0.00;0.00;;;21.30;99.90;;;;;;5040802;28;20026;-76
2022/05/12 04:02:26;;;;;;;0.45;0.43;;;21.70;99.90;;;;;;5041452;28;20535;-77
2022/05/12 04:04:52;;;;;;;1.50;0.95;;;21.50;99.90;;;;;;5042475;28;20069;-76
2022/05/12 04:07:21;;;;;;;2.70;1.48;;;21.30;99.90;;;;;;5036699;28;20124;-77
2022/05/12 04:09:48;;;;;;;1.65;1.45;;;20.80;99.90;;;;;;5039308;28;20028;-76
2022/05/12 04:12:14;;;;;;;4.50;2.95;;;20.20;99.90;;;;;;5038871;28;20072;-77
2022/05/12 04:14:42;;;;;;;0.65;0.50;;;20.40;99.90;;;;;;5038840;28;20053;-77
2022/05/12 04:17:12;;;;;;;0.98;0.90;;;20.50;99.90;;;;;;5041294;28;20033;-77
2022/05/12 04:19:40;;;;;;;1.90;1.08;;;20.50;99.90;;;;;;5039171;28;20033;-76
2022/05/12 04:22:06;;;;;;;0.20;0.20;;;20.50;99.90;;;;;;5045507;28;20779;-74
2022/05/12 04:24:32;;;;;;;1.65;0.82;;;20.50;99.90;;;;;;5040678;28;20037;-77
2022/05/12 04:26:58;;;;;;;0.28;0.28;;;20.80;99.90;;;;;;5040098;28;20455;-77
2022/05/12 04:29:25;;;;;;;0.55;0.38;;;20.90;99.90;;;;;;5039650;28;20422;-75
2022/05/12 04:31:51;;;;;;;10.85;1.67;;;21.40;99.90;;;;;;5038573;28;20026;-75
2022/05/12 04:37:02;;;;;;;0.85;0.85;;;20.70;99.90;;;;;;5035440;28;20036;-76
2022/05/12 04:39:30;;;;;;;2.22;0.68;;;20.90;99.90;;;;;;5036941;28;20051;-75
2022/05/12 04:41:56;;;;;;;0.52;0.52;;;21.00;99.90;;;;;;5035739;28;20303;-77
2022/05/12 04:44:22;;;;;;;1.25;0.88;;;20.90;99.90;;;;;;5035169;28;20028;-75
2022/05/12 04:46:49;;;;;;;0.00;0.00;;;21.10;99.90;;;;;;5040790;28;20025;-74
2022/05/12 04:49:15;;;;;;;0.52;0.30;;;20.70;99.90;;;;;;5049940;28;20107;-74
2022/05/12 04:51:42;;;;;;;0.20;0.20;;;20.90;99.90;;;;;;5045675;28;20029;-76
2022/05/12 04:54:09;;;;;;;0.20;0.20;;;21.00;99.90;;;;;;5036040;28;20045;-76
2022/05/12 04:56:39;;;;;;;0.77;0.50;;;20.80;99.90;;;;;;5034284;28;20044;-77
2022/05/12 04:59:07;;;;;;;1.52;0.88;;;21.20;99.90;;;;;;5031550;28;20052;-75
2022/05/12 05:01:34;;;;;;;4.50;0.80;;;21.00;99.90;;;;;;5023812;28;20022;-76
2022/05/12 05:04:00;;;;;;;2.38;1.63;;;20.90;99.90;;;;;;5027582;28;20467;-76
2022/05/12 05:06:33;;;;;;;1.33;1.23;;;20.90;99.90;;;;;;5031647;28;20036;-77
2022/05/12 05:09:00;;;;;;;0.00;0.00;;;21.00;99.90;;;;;;5029374;28;20025;-76
2022/05/12 05:11:27;;;;;;;0.00;0.00;;;21.00;99.90;;;;;;5029224;28;20025;-76
2022/05/12 05:13:53;;;;;;;1.80;1.70;;;21.20;99.90;;;;;;5025961;28;20095;-76
2022/05/12 05:16:19;;;;;;;1.45;0.93;;;21.20;99.90;;;;;;5026428;28;20033;-79
2022/05/12 05:18:45;;;;;;;0.63;0.38;;;21.50;99.90;;;;;;5022744;28;20037;-78
2022/05/12 05:21:11;;;;;;;0.00;0.00;;;21.30;99.90;;;;;;5022509;28;20042;-75
2022/05/12 05:23:38;;;;;;;0.80;0.30;;;21.40;99.90;;;;;;5023300;28;20040;-77
2022/05/12 05:26:06;;;;;;;0.20;0.20;;;21.20;99.90;;;;;;5024561;28;20026;-76
2022/05/12 05:28:32;;;;;;;0.00;0.00;;;20.90;99.90;;;;;;5022414;28;20026;-75
2022/05/12 05:30:58;;;;;;;0.85;0.73;;;21.10;99.90;;;;;;5021392;28;20036;-75
2022/05/12 05:33:24;;;;;;;0.68;0.43;;;21.50;99.90;;;;;;5021252;28;20040;-75
2022/05/12 05:35:50;;;;;;;4.28;1.75;;;21.60;99.90;;;;;;5016659;28;20022;-76
2022/05/12 05:38:18;;;;;;;2.08;1.85;;;21.60;99.90;;;;;;5013255;28;20059;-76
2022/05/12 05:40:44;;;;;;;0.00;0.00;;;21.40;99.90;;;;;;5016267;28;20041;-76
2022/05/12 05:43:10;;;;;;;0.00;0.00;;;21.70;99.90;;;;;;5028298;28;20424;-75
2022/05/12 05:45:36;;;;;;;3.45;1.75;;;21.90;99.90;;;;;;5023475;28;20136;-75
2022/05/12 05:48:04;;;;;;;5.05;2.25;;;21.90;99.90;;;;;;5025265;28;20032;-77
2022/05/12 05:53:41;;;;;;;9.15;2.95;;;21.80;99.90;;;;;;5016928;28;20096;-78
2022/05/12 05:56:15;;;;;;;5.05;4.18;;;21.50;99.90;;;;;;5015612;28;20055;-76
2022/05/12 05:58:45;;;;;;;2.67;1.88;;;21.40;99.90;;;;;;5025135;28;20380;-76
2022/05/12 06:01:12;;;;;;;0.77;0.68;;;21.40;99.90;;;;;;5008876;28;20527;-76
2022/05/12 06:03:39;;;;;;;4.88;4.43;;;21.00;99.90;;;;;;5014459;28;20097;-77
2022/05/12 06:06:06;;;;;;;4.95;0.38;;;21.20;99.90;;;;;;5005147;28;20025;-75
2022/05/12 06:08:48;;;;;;;3.38;2.67;;;21.30;99.90;;;;;;5010417;28;20049;-76
2022/05/12 06:11:15;;;;;;;2.25;1.10;;;21.40;99.90;;;;;;5023259;28;20033;-75
2022/05/12 06:13:42;;;;;;;0.30;0.30;;;21.60;99.90;;;;;;5020510;28;20034;-75
2022/05/12 06:16:09;;;;;;;8.73;4.90;;;21.60;99.90;;;;;;5015088;28;20109;-76
2022/05/12 06:18:36;;;;;;;0.00;0.00;;;21.30;99.90;;;;;;5026919;28;20033;-75
2022/05/12 06:21:04;;;;;;;11.23;1.33;;;21.20;99.90;;;;;;5022347;28;20026;-76
2022/05/12 06:23:30;;;;;;;1.75;1.65;;;21.00;99.90;;;;;;5019634;28;20748;-77
2022/05/12 06:25:57;;;;;;;1.83;1.73;;;21.00;99.90;;;;;;5021926;28;20041;-76
2022/05/12 06:28:23;;;;;;;6.38;3.55;;;21.70;99.90;;;;;;5022690;28;20079;-76
2022/05/12 06:30:49;;;;;;;6.30;4.63;;;21.80;99.90;;;;;;5019987;28;20100;-77
2022/05/12 06:33:17;;;;;;;1.40;1.08;;;21.70;99.90;;;;;;5019264;28;20037;-75
2022/05/12 06:35:44;;;;;;;0.65;0.65;;;21.60;99.90;;;;;;5028805;28;20021;-75
2022/05/12 06:38:11;;;;;;;3.53;0.70;;;21.40;99.90;;;;;;5027734;28;20045;-75
2022/05/12 06:40:37;;;;;;;6.00;1.63;;;21.80;99.90;;;;;;5028689;28;20025;-75
2022/05/12 06:43:08;;;;;;;12.20;1.20;;;21.80;99.90;;;;;;5027692;28;20033;-76
2022/05/12 06:45:35;;;;;;;0.60;0.60;;;21.80;99.90;;;;;;5027541;28;20072;-76
2022/05/12 06:48:01;;;;;;;0.40;0.40;;;22.00;99.90;;;;;;5058122;28;20419;-76
2022/05/12 06:50:29;;;;;;;0.20;0.20;;;22.20;99.90;;;;;;5023092;28;20022;-75
2022/05/12 06:52:56;;;;;;;1.98;0.43;;;22.10;99.90;;;;;;5021226;28;20033;-76
2022/05/12 06:55:26;;;;;;;2.97;2.72;;;22.20;99.90;;;;;;5022579;28;20029;-76
2022/05/12 06:57:53;;;;;;;0.00;0.00;;;22.30;99.90;;;;;;5024730;28;20487;-77
2022/05/12 07:00:20;;;;;;;3.72;2.47;;;22.40;99.90;;;;;;5025836;28;20060;-78
2022/05/12 07:02:47;;;;;;;4.85;2.25;;;22.50;99.90;;;;;;5022504;28;20049;-75
2022/05/12 07:05:16;;;;;;;0.43;0.43;;;22.40;99.90;;;;;;5016402;28;20082;-76
2022/05/12 07:07:43;;;;;;;9.60;7.05;;;22.30;99.90;;;;;;5018183;28;20093;-76
2022/05/12 07:10:11;;;;;;;0.00;0.00;;;22.30;99.90;;;;;;5023543;28;20017;-77
2022/05/12 07:12:37;;;;;;;1.55;0.90;;;22.20;99.90;;;;;;5031636;28;20025;-80
2022/05/12 07:15:05;;;;;;;0.10;0.10;;;22.10;99.90;;;;;;5020217;28;20028;-77
2022/05/12 07:17:33;;;;;;;0.00;0.00;;;21.90;99.90;;;;;;5029666;28;20029;-77
2022/05/12 07:26:35;;;;;;;0.00;0.00;;;22.10;99.90;;;;;;5033188;28;20017;-78
2022/05/12 07:28:14;;;;;;;1.40;0.68;;;23.00;99.90;;;;;;5031975;28;20183;-77
2022/05/12 07:31:02;;;;;;;1.58;1.02;;;23.20;99.90;;;;;;5030903;28;20112;-75
2022/05/12 07:33:47;;;;;;;0.03;0.03;;;23.00;99.90;;;;;;5022813;28;20058;-75
2022/05/12 07:36:23;;;;;;;0.00;0.00;;;22.90;99.90;;;;;;5018547;28;20462;-76
2022/05/12 07:38:49;;;;;;;0.32;0.32;;;23.20;99.90;;;;;;5022935;28;20366;-76
2022/05/12 07:41:16;;;;;;;0.00;0.00;;;23.10;99.90;;;;;;5022112;28;20026;-76
2022/05/12 07:43:44;;;;;;;0.30;0.30;;;22.80;99.90;;;;;;5017264;28;20109;-75
2022/05/12 07:46:12;;;;;;;0.52;0.52;;;22.70;99.90;;;;;;5022235;28;20013;-76
2022/05/12 07:48:39;;;;;;;10.77;2.60;;;22.40;99.90;;;;;;5022660;28;20044;-76
2022/05/12 07:51:05;;;;;;;1.48;0.70;;;22.50;99.90;;;;;;5021822;28;20374;-77
2022/05/12 07:53:32;;;;;;;0.25;0.05;;;22.90;99.90;;;;;;5023415;28;20138;-76
2022/05/12 07:55:58;;;;;;;1.98;0.57;;;22.80;99.90;;;;;;5017715;28;20053;-77
2022/05/12 07:58:25;;;;;;;0.98;0.55;;;23.10;99.90;;;;;;5026546;28;20029;-76
2022/05/12 08:00:53;;;;;;;0.20;0.10;;;23.30;99.90;;;;;;5022282;28;20468;-76
2022/05/12 08:03:22;;;;;;;0.00;0.00;;;23.60;99.90;;;;;;5027194;28;20367;-75
2022/05/12 08:05:49;;;;;;;0.00;0.00;;;23.80;99.90;;;;;;5026851;28;20100;-76
2022/05/12 08:08:15;;;;;;;0.00;0.00;;;23.80;99.90;;;;;;5027645;28;20484;-76
2022/05/12 08:10:41;;;;;;;0.28;0.10;;;23.50;99.90;;;;;;5025937;28;20529;-75
2022/05/12 08:13:14;;;;;;;0.00;0.00;;;23.50;99.90;;;;;;5020114;28;20026;-78
2022/05/12 08:15:44;;;;;;;0.00;0.00;;;23.40;99.90;;;;;;5029956;28;20080;-75
2022/05/12 08:18:11;;;;;;;1.02;0.50;;;23.50;99.90;;;;;;5025593;28;20037;-76
2022/05/12 08:20:38;;;;;;;0.00;0.00;;;23.80;99.90;;;;;;5030305;28;20040;-75
2022/05/12 08:23:05;;;;;;;0.00;0.00;;;23.40;99.90;;;;;;5025708;28;20415;-75
2022/05/12 08:25:31;;;;;;;0.00;0.00;;;23.70;99.90;;;;;;5024159;28;20096;-77
2022/05/12 08:27:57;;;;;;;0.00;0.00;;;24.10;99.90;;;;;;5030673;28;20034;-76
2022/05/12 08:30:29;;;;;;;0.70;0.47;;;24.10;99.90;;;;;;5028710;28;20036;-78
2022/05/12 08:32:56;;;;;;;0.00;0.00;;;24.30;99.90;;;;;;5025122;28;20124;-77
2022/05/12 08:35:23;;;;;;;0.00;0.00;;;24.20;99.90;;;;;;5022276;28;20041;-76
2022/05/12 08:37:49;;;;;;;0.00;0.00;;;24.10;99.90;;;;;;5030966;28;20528;-77
2022/05/12 08:40:36;;;;;;;4.18;3.20;;;24.30;99.90;;;;;;5033802;28;20278;-75
2022/05/12 08:43:13;;;;;;;0.00;0.00;;;23.90;99.90;;;;;;5033501;28;20120;-79
2022/05/12 08:45:39;;;;;;;1.05;0.52;;;24.20;99.90;;;;;;5030449;28;20027;-77
2022/05/12 08:48:06;;;;;;;0.45;0.38;;;24.00;99.90;;;;;;5029070;28;20026;-77
2022/05/12 08:50:33;;;;;;;0.38;0.38;;;23.60;99.90;;;;;;5027564;28;20029;-77
2022/05/12 08:53:03;;;;;;;0.00;0.00;;;23.20;99.90;;;;;;5032545;28;20077;-76
2022/05/12 08:55:47;;;;;;;0.00;0.00;;;23.50;99.90;;;;;;5033223;28;20034;-76
2022/05/12 08:58:33;;;;;;;0.20;0.20;;;23.50;99.90;;;;;;5029632;28;20029;-76
2022/05/12 09:01:08;;;;;;;0.00;0.00;;;23.40;99.90;;;;;;5027828;28;20037;-77
2022/05/12 09:03:59;;;;;;;3.20;3.03;;;23.80;99.90;;;;;;5041149;28;20125;-77
2022/05/12 09:07:03;;;;;;;0.00;0.00;;;23.60;99.90;;;;;;5035650;28;20025;-74
2022/05/12 09:10:01;;;;;;;0.00;0.00;;;24.00;99.90;;;;;;5027111;28;20427;-77
2022/05/12 09:12:45;;;;;;;0.00;0.00;;;24.10;99.80;;;;;;5027300;28;20112;-75
2022/05/12 09:15:22;;;;;;;0.10;0.10;;;24.60;95.90;;;;;;5027532;28;20021;-75
2022/05/12 09:17:57;;;;;;;17.85;0.95;;;24.50;96.90;;;;;;5028070;28;20100;-76
2022/05/12 09:20:25;;;;;;;0.00;0.00;;;24.30;93.50;;;;;;5028325;28;20494;-76
2022/05/12 09:22:51;;;;;;;0.00;0.00;;;24.20;94.60;;;;;;5026646;28;20025;-77
2022/05/12 09:25:42;;;;;;;1.38;1.27;;;24.10;94.90;;;;;;5029531;28;20541;-76
2022/05/12 09:28:27;;;;;;;0.00;0.00;;;23.90;93.30;;;;;;5008982;28;20076;-76
2022/05/12 09:30:55;;;;;;;0.10;0.10;;;23.80;95.60;;;;;;5030247;28;20080;-76
2022/05/12 09:33:35;;;;;;;0.00;0.00;;;23.60;94.10;;;;;;5023020;28;20783;-77
2022/05/12 09:36:06;;;;;;;0.00;0.00;;;23.40;93.80;;;;;;5030076;28;20041;-77
2022/05/12 09:38:45;;;;;;;0.00;0.00;;;23.60;96.00;;;;;;5025629;28;20029;-77
2022/05/12 09:41:21;;;;;;;0.00;0.00;;;23.90;96.80;;;;;;5019887;28;20080;-77
2022/05/12 09:43:50;;;;;;;0.00;0.00;;;24.30;95.10;;;;;;5020131;28;20030;-77
2022/05/12 09:46:16;;;;;;;0.00;0.00;;;23.90;95.20;;;;;;5029981;28;20432;-77
2022/05/12 09:48:44;;;;;;;0.65;0.65;;;23.90;95.50;;;;;;5028668;28;20104;-76
2022/05/12 09:51:19;;;;;;;0.00;0.00;;;23.20;98.80;;;;;;5027280;28;20040;-76
2022/05/12 09:53:45;;;;;;;0.00;0.00;;;22.80;99.90;;;;;;5036350;28;20120;-76
2022/05/12 09:56:33;;;;;;;0.00;0.00;;;23.00;99.90;;;;;;5031383;28;20372;-76
2022/05/12 09:59:10;;;;;;;0.00;0.00;;;23.30;99.90;;;;;;5029899;28;20494;-76
2022/05/12 10:01:55;;;;;;;0.00;0.00;;;23.30;99.80;;;;;;5029132;28;20138;-76
2022/05/12 10:07:54;;;;;;;4.30;1.20;;;23.20;96.20;;;;;;5019354;28;20032;-76
2022/05/12 10:10:26;;;;;;;0.00;0.00;;;23.20;96.50;;;;;;5029939;28;20156;-76
2022/05/12 10:13:16;;;;;;;1.00;1.00;;;23.10;97.40;;;;;;5031723;28;20350;-85
2022/05/12 10:15:43;;;;;;;1.55;0.15;;;23.10;98.40;;;;;;5029958;28;20058;-81
2022/05/12 10:18:17;;;;;;;0.00;0.00;;;23.10;97.00;;;;;;5027459;28;20022;-84
2022/05/12 10:20:47;;;;;;;0.00;0.00;;;23.50;95.80;;;;;;5026496;28;20025;-81
2022/05/12 10:23:42;;;;;;;0.00;0.00;;;23.80;94.30;;;;;;5036381;28;20034;-79
2022/05/12 10:26:12;;;;;;;0.00;0.00;;;23.50;94.40;;;;;;5028304;28;20029;-82
2022/05/12 10:28:59;;;;;;;0.00;0.00;;;23.80;93.10;;;;;;5028473;28;20022;-85
2022/05/12 10:31:36;;;;;;;0.00;0.00;;;24.00;92.20;;;;;;5025776;28;20028;-85
2022/05/12 10:34:23;;;;;;;0.00;0.00;;;24.00;90.60;;;;;;5029812;28;20026;-85
2022/05/12 10:37:09;;;;;;;0.13;0.13;;;24.10;87.80;;;;;;5030582;28;20021;-85
2022/05/12 10:40:04;;;;;;;0.00;0.00;;;23.70;86.10;;;;;;5022341;28;20041;-85
2022/05/12 10:42:54;;;;;;;0.00;0.00;;;24.00;84.30;;;;;;5039549;28;20020;-82
2022/05/12 10:45:26;;;;;;;0.00;0.00;;;24.40;81.70;;;;;;5037717;28;20034;-78
2022/05/12 10:48:03;;;;;;;0.00;0.00;;;24.50;78.40;;;;;;5037994;28;20022;-78
2022/05/12 10:50:39;;;;;;;0.00;0.00;;;24.60;75.80;;;;;;5030829;28;20017;-80
2022/05/12 10:53:29;;;;;;;0.00;0.00;;;24.60;75.30;;;;;;5036889;28;20091;-85
2022/05/12 10:56:08;;;;;;;0.00;0.00;;;24.40;76.20;;;;;;5025744;28;20025;-83
2022/05/12 10:58:48;;;;;;;0.03;0.03;;;24.40;78.50;;;;;;5026359;28;20056;-84
2022/05/12 11:01:45;;;;;;;0.10;0.10;;;24.20;79.00;;;;;;5025333;28;20025;-85
2022/05/12 11:04:30;;;;;;;0.00;0.00;;;24.20;79.30;;;;;;5021956;28;20411;-85
2022/05/12 11:07:08;;;;;;;0.00;0.00;;;24.20;78.20;;;;;;5020026;28;20025;-86
2022/05/12 11:09:43;;;;;;;0.00;0.00;;;24.20;77.70;;;;;;5020676;28;20398;-84
2022/05/12 11:12:28;;;;;;;0.00;0.00;;;24.20;80.50;;;;;;5027025;28;20028;-82
2022/05/12 11:15:23;;;;;;;0.00;0.00;;;24.20;83.70;;;;;;5018028;28;20134;-80
2022/05/12 11:17:59;;;;;;;0.00;0.00;;;24.10;84.50;;;;;;5021914;28;20021;-82
2022/05/12 11:20:36;;;;;;;0.00;0.00;;;24.10;85.90;;;;;;5024963;28;20041;-81
2022/05/12 11:23:27;;;;;;;0.00;0.00;;;24.00;87.90;;;;;;5030328;28;20112;-86
2022/05/12 11:26:13;;;;;;;0.00;0.00;;;24.10;89.60;;;;;;5030910;28;20029;-83
2022/05/12 11:31:55;;;;;;;0.00;0.00;;;23.80;91.10;;;;;;5037420;28;20044;-81
2022/05/12 11:34:24;;;;;;;0.00;0.00;;;23.80;91.50;;;;;;5030940;28;20033;-84
2022/05/12 11:36:54;;;;;;;0.38;0.38;;;23.60;92.30;;;;;;5022481;28;20040;-83
2022/05/12 11:39:27;;;;;;;0.10;0.10;;;23.50;92.90;;;;;;5029254;28;20063;-81
2022/05/12 11:42:24;;;;;;;0.00;0.00;;;23.60;94.10;;;;;;5023791;28;20033;-85
2022/05/12 11:44:59;;;;;;;0.00;0.00;;;23.50;94.90;;;;;;5029186;28;20056;-83
2022/05/12 11:47:40;;;;;;;0.00;0.00;;;23.50;95.10;;;;;;5024375;28;20068;-84
2022/05/12 11:50:18;;;;;;;0.00;0.00;;;23.50;95.30;;;;;;5025142;28;20502;-84
2022/05/12 11:52:47;;;;;;;0.00;0.00;;;23.40;95.80;;;;;;5037265;28;20029;-86
2022/05/12 11:55:29;;;;;;;0.00;0.00;;;23.30;97.10;;;;;;5037818;28;20112;-82
2022/05/12 11:58:04;;;;;;;0.00;0.00;;;22.90;99.90;;;;;;5024292;28;20067;-85
2022/05/12 12:00:54;;;;;;;14.90;7.57;;;23.00;99.90;;;;;;5019954;28;20052;-85
2022/05/12 12:03:22;;;;;;;0.55;0.25;;;23.10;99.90;;;;;;5027869;28;20117;-85
2022/05/12 12:05:50;;;;;;;0.00;0.00;;;23.10;99.90;;;;;;5020898;28;20411;-80
2022/05/12 12:08:32;;;;;;;0.00;0.00;;;23.20;99.90;;;;;;5025646;28;20460;-83
2022/05/12 12:11:20;;;;;;;0.00;0.00;;;23.20;99.90;;;;;;5027683;28;20032;-81
2022/05/12 12:13:55;;;;;;;0.00;0.00;;;23.20;99.90;;;;;;5028567;28;20475;-76
2022/05/12 12:16:28;;;;;;;0.00;0.00;;;23.10;99.90;;;;;;5019120;28;20099;-76
2022/05/12 12:19:05;;;;;;;0.00;0.00;;;22.80;99.90;;;;;;5019350;28;20087;-76
2022/05/12 12:21:37;;;;;;;0.45;0.45;;;22.70;99.90;;;;;;5022318;28;20399;-76
2022/05/12 12:24:09;;;;;;;0.00;0.00;;;22.20;99.90;;;;;;5027247;28;20018;-77
2022/05/12 12:26:37;;;;;;;0.30;0.30;;;22.10;99.90;;;;;;5025063;28;20029;-75
2022/05/12 12:29:09;;;;;;;1.10;0.30;;;22.10;99.90;;;;;;5024438;28;20087;-76
2022/05/12 12:31:40;;;;;;;0.00;0.00;;;22.20;99.90;;;;;;5024476;28;20025;-76
2022/05/12 12:34:18;;;;;;;0.30;0.30;;;22.10;99.90;;;;;;5029448;28;20511;-76
2022/05/12 12:36:56;;;;;;;0.03;0.03;;;22.30;99.90;;;;;;5029366;28;20383;-76
2022/05/12 12:40:01;;;;;;;0.00;0.00;;;22.30;99.90;;;;;;5026813;28;20551;-77
2022/05/12 12:42:43;;;;;;;0.00;0.00;;;22.10;99.90;;;;;;5021835;28;20463;-76
2022/05/12 12:45:16;;;;;;;0.00;0.00;;;22.30;97.00;;;;;;5022578;28;20487;-74
2022/05/12 12:47:56;;;;;;;0.43;0.43;;;22.30;77.10;;;;;;5023950;28;20071;-76
2022/05/12 12:50:47;;;;;;;0.00;0.00;;;22.10;63.60;;;;;;5024664;28;20029;-76
2022/05/12 12:53:13;;;;;;;0.00;0.00;;;22.20;60.70;;;;;;5024091;28;20077;-76
2022/05/12 12:58:46;;;;;;;0.00;0.00;;;22.10;59.20;;;;;;5025881;28;20423;-76
2022/05/12 13:01:17;;;;;;;0.00;0.00;;;22.20;59.10;;;;;;5026745;28;20029;-76
2022/05/12 13:03:56;;;;;;;0.28;0.28;;;22.20;59.10;;;;;;5027035;28;20124;-75
2022/05/12 13:06:30;;;;;;;1.90;1.55;;;22.20;59.60;;;;;;5025689;28;20021;-75
2022/05/12 13:09:02;;;;;;;0.00;0.00;;;22.10;58.60;;;;;;5025307;28;20337;-76
2022/05/12 13:11:29;;;;;;;1.00;1.00;;;21.80;59.60;;;;;;5032217;28;20021;-75
2022/05/12 13:13:56;;;;;;;0.00;0.00;;;21.90;58.60;;;;;;5027889;28;20387;-76
2022/05/12 13:16:30;;;;;;;0.00;0.00;;;21.70;58.40;;;;;;5029384;28;20030;-76
2022/05/12 13:31:35;;;;;;;0.00;0.00;;;21.30;58.00;;;;;;5144864;27;20336;-74
2022/05/12 13:34:26;;;;;;;0.05;0.05;;;21.30;57.80;;;;;;5125095;28;20045;-73
2022/05/12 13:36:55;;;;;;;4.18;0.63;;;21.30;57.90;;;;;;5117079;28;20030;-74
2022/05/12 13:39:49;;;;;;;0.00;0.00;;;21.30;58.00;;;;;;5123260;28;20848;-77
2022/05/12 13:42:19;;;;;;;0.00;0.00;;;21.20;58.40;;;;;;5118389;28;20019;-76
2022/05/12 13:44:50;;;;;;;0.75;0.75;;;21.20;58.50;;;;;;5119227;28;20031;-76
2022/05/12 13:47:33;;;;;;;0.00;0.00;;;21.10;58.70;;;;;;5116471;28;20020;-74
2022/05/12 13:49:59;;;;;;;0.10;0.00;;;21.10;58.70;;;;;;5120964;28;20089;-74
2022/05/12 13:52:40;;;;;;;0.20;0.20;;;21.20;58.50;;;;;;5122677;28;20054;-73